createdAt,value
2022-12-23T00:00:43.486Z,96517.94
2022-12-23T00:03:10.495Z,96508.56
2022-12-23T00:05:41.368Z,96500.94
2022-12-23T00:08:08.716Z,96515.38
2022-12-23T00:10:39.482Z,96510.31
2022-12-23T00:13:25.474Z,96503.72
2022-12-23T00:16:03.449Z,96506.00
2022-12-23T00:18:30.383Z,96508.81
2022-12-23T00:21:08.336Z,96502.44
2022-12-23T00:23:39.297Z,96494.81
2022-12-23T00:26:06.539Z,96504.94
2022-12-23T00:28:33.822Z,96498.56
2022-12-23T00:31:08.629Z,96490.16
2022-12-23T00:33:38.216Z,96495.75
2022-12-23T00:36:15.650Z,96481.75
2022-12-23T00:39:01.294Z,96478.00
2022-12-23T00:41:46.880Z,96481.31
2022-12-23T00:44:13.814Z,96483.03
2022-12-23T00:46:40.739Z,96487.34
2022-12-23T00:49:26.472Z,96489.72
2022-12-23T00:51:53.407Z,96481.84
2022-12-23T00:54:20.298Z,96484.44
2022-12-23T00:56:47.144Z,96481.84
2022-12-23T00:59:14.144Z,96496.41
2022-12-23T01:02:00.144Z,96502.00
2022-12-23T01:04:45.861Z,96480.63
2022-12-23T01:07:12.869Z,96493.38
2022-12-23T01:09:39.775Z,96486.69
2022-12-23T01:12:07.439Z,96478.28
2022-12-23T01:14:34.555Z,96472.03
2022-12-23T01:17:01.646Z,96486.69
2022-12-23T01:19:29.196Z,96484.13
2022-12-23T01:21:57.099Z,96479.59
2022-12-23T01:24:27.651Z,96482.41
2022-12-23T01:26:54.777Z,96489.19
2022-12-23T01:29:22.192Z,96485.41
2022-12-23T01:31:50.370Z,96484.88
2022-12-23T01:34:18.250Z,96487.13
2022-12-23T01:36:45.504Z,96484.88
2022-12-23T01:39:12.545Z,96481.84
2022-12-23T01:41:57.996Z,96486.91
2022-12-23T01:44:46.877Z,96481.31
2022-12-23T01:47:24.139Z,96475.47
2022-12-23T01:49:54.303Z,96473.75
2022-12-23T01:52:21.669Z,96472.66
2022-12-23T01:54:48.996Z,96472.47
2022-12-23T01:57:16.004Z,96474.00
2022-12-23T02:00:02.416Z,96473.22
2022-12-23T02:02:55.455Z,96470.44
2022-12-23T02:05:24.030Z,96478.84
2022-12-23T02:08:12.154Z,96479.03
2022-12-23T02:10:59.988Z,96472.22
2022-12-23T02:14:30.084Z,96479.59
2022-12-23T02:17:17.517Z,96478.59
2022-12-23T02:20:09.609Z,96472.91
2022-12-23T02:23:08.682Z,96481.53
2022-12-23T02:25:53.724Z,96480.47
2022-12-23T02:28:36.875Z,96476.66
2022-12-23T02:31:16.079Z,96481.22
2022-12-23T02:33:57.196Z,96483.47
2022-12-23T02:36:47.207Z,96480.91
2022-12-23T02:39:25.868Z,96472.72
2022-12-23T02:42:37.714Z,96481.34
2022-12-23T02:45:18.869Z,96465.38
2022-12-23T02:47:59.747Z,96466.03
2022-12-23T02:50:33.674Z,96471.75
2022-12-23T02:53:08.069Z,96465.13
2022-12-23T02:55:38.594Z,96475.31
2022-12-23T02:58:11.328Z,96462.13
2022-12-23T03:00:40.259Z,96465.91
2022-12-23T03:03:07.300Z,96471.81
2022-12-23T03:05:45.138Z,96472.06
2022-12-23T03:08:19.197Z,96480.25
2022-12-23T03:11:06.353Z,96488.66
2022-12-23T03:13:47.549Z,96485.09
2022-12-23T03:16:24.773Z,96487.13
2022-12-23T03:19:01.917Z,96486.41
2022-12-23T03:21:42.567Z,96491.34
2022-12-23T03:24:34.408Z,96494.38
2022-12-23T03:27:10.467Z,96486.94
2022-12-23T03:30:08.493Z,96494.06
2022-12-23T03:32:50.131Z,96486.94
2022-12-23T03:35:21.639Z,96488.56
2022-12-23T03:37:51.802Z,96492.88
2022-12-23T03:40:35.164Z,96493.63
2022-12-23T03:43:08.150Z,96499.25
2022-12-23T03:45:43.496Z,96499.78
2022-12-23T03:48:21.054Z,96494.91
2022-12-23T03:50:52.767Z,96488.13
2022-12-23T03:53:29.780Z,96492.44
2022-12-23T03:56:02.507Z,96494.91
2022-12-23T03:58:48.541Z,96508.63
2022-12-23T04:01:43.343Z,96505.28
2022-12-23T04:04:26.283Z,96517.25
2022-12-23T04:07:21.391Z,96522.88
2022-12-23T04:09:49.898Z,96518.75
2022-12-23T04:12:17.417Z,96513.91
2022-12-23T04:14:49.272Z,96509.06
2022-12-23T04:17:19.811Z,96511.84
2022-12-23T04:19:47.177Z,96516.94
2022-12-23T04:22:15.969Z,96510.91
2022-12-23T04:24:43.264Z,96512.81
2022-12-23T04:27:13.620Z,96515.63
2022-12-23T04:29:41.058Z,96509.06
2022-12-23T04:32:09.957Z,96509.59
2022-12-23T04:34:36.963Z,96520.72
2022-12-23T04:37:03.923Z,96528.59
2022-12-23T04:39:30.850Z,96526.00
2022-12-23T04:41:57.723Z,96515.34
2022-12-23T04:44:24.565Z,96521.91
2022-12-23T04:46:51.487Z,96515.09
2022-12-23T04:49:18.439Z,96529.66
2022-12-23T04:51:45.872Z,96525.13
2022-12-23T04:54:12.828Z,96535.56
2022-12-23T04:56:40.144Z,96538.94
2022-12-23T04:59:07.034Z,96543.31
2022-12-23T05:01:34.052Z,96544.09
2022-12-23T05:04:00.939Z,96549.69
2022-12-23T05:06:27.925Z,96555.06
2022-12-23T05:08:54.909Z,96552.56
2022-12-23T05:11:21.852Z,96564.53
2022-12-23T05:13:48.751Z,96568.63
2022-12-23T05:16:15.640Z,96564.53
2022-12-23T05:18:42.588Z,96562.25
2022-12-23T05:21:09.481Z,96567.34
2022-12-23T05:23:36.390Z,96560.22
2022-12-23T05:26:03.373Z,96559.69
2022-12-23T05:28:30.583Z,96560.22
2022-12-23T05:31:03.570Z,96557.63
2022-12-23T05:33:31.953Z,96566.03
2022-12-23T05:35:59.363Z,96558.94
2022-12-23T05:38:26.853Z,96560.75
2022-12-23T05:40:53.878Z,96563.78
2022-12-23T05:43:21.117Z,96567.13
2022-12-23T05:45:48.937Z,96571.44
2022-12-23T05:48:15.738Z,96557.41
2022-12-23T05:50:42.635Z,96565.84
2022-12-23T05:53:09.421Z,96571.19
2022-12-23T05:55:36.528Z,96572.72
2022-12-23T05:58:03.425Z,96567.88
2022-12-23T06:00:30.246Z,96581.13
2022-12-23T06:02:57.312Z,96576.81
2022-12-23T06:05:24.304Z,96583.72
2022-12-23T06:07:51.279Z,96583.16
2022-12-23T06:10:18.209Z,96579.84
2022-12-23T06:12:45.035Z,96574.44
2022-12-23T06:15:11.935Z,96571.63
2022-12-23T06:17:38.841Z,96577.25
2022-12-23T06:20:06.395Z,96575.97
2022-12-23T06:22:33.372Z,96567.78
2022-12-23T06:25:00.155Z,96577.72
2022-12-23T06:27:27.265Z,96589.91
2022-12-23T06:29:54.054Z,96594.97
2022-12-23T06:32:20.838Z,96611.81
2022-12-23T06:34:49.720Z,96618.16
2022-12-23T06:37:16.498Z,96623.22
2022-12-23T06:39:43.243Z,96613.75
2022-12-23T06:42:10.195Z,96619.34
2022-12-23T06:44:36.922Z,96639.22
2022-12-23T06:47:03.953Z,96633.59
2022-12-23T06:49:30.757Z,96636.41
2022-12-23T06:51:57.523Z,96644.81
2022-12-23T06:54:24.260Z,96651.94
2022-12-23T06:56:51.235Z,96644.81
2022-12-23T06:59:17.999Z,96657.56
2022-12-23T07:01:44.878Z,96656.03
2022-12-23T07:04:11.670Z,96646.84
2022-12-23T07:06:39.770Z,96650.41
2022-12-23T07:09:07.450Z,96646.34
2022-12-23T07:11:34.883Z,96662.09
2022-12-23T07:14:01.666Z,96660.56
2022-12-23T07:16:28.470Z,96656.47
2022-12-23T07:18:55.277Z,96647.84
2022-12-23T07:21:29.086Z,96653.97
2022-12-23T07:23:56.759Z,96664.19
2022-12-23T07:26:23.611Z,96672.59
2022-12-23T07:28:50.362Z,96669.06
2022-12-23T07:31:17.255Z,96671.88
2022-12-23T07:33:44.363Z,96682.34
2022-12-23T07:36:11.413Z,96679.53
2022-12-23T07:38:38.265Z,96695.59
2022-12-23T07:41:06.520Z,96701.94
2022-12-23T07:43:33.421Z,96702.72
2022-12-23T07:46:06.940Z,96699.16
2022-12-23T07:48:33.838Z,96706.25
2022-12-23T07:51:02.568Z,96709.06
2022-12-23T07:53:29.888Z,96708.78
2022-12-23T07:55:57.261Z,96703.44
2022-12-23T07:58:25.052Z,96704.13
2022-12-23T08:00:59.462Z,96709.97
2022-12-23T08:03:26.445Z,96696.50
2022-12-23T08:06:19.815Z,96704.81
2022-12-23T08:08:47.208Z,96711.72
2022-12-23T08:11:15.608Z,96705.59
2022-12-23T08:13:44.990Z,96698.00
2022-12-23T08:16:12.613Z,96703.31
2022-12-23T08:18:41.728Z,96694.13
2022-12-23T08:21:17.788Z,96693.63
2022-12-23T08:23:45.496Z,96700.72
2022-12-23T08:26:18.798Z,96697.38
2022-12-23T08:28:46.755Z,96691.25
2022-12-23T08:31:17.984Z,96696.88
2022-12-23T08:33:48.410Z,96707.25
2022-12-23T08:36:23.336Z,96716.41
2022-12-23T08:38:53.190Z,96714.34
2022-12-23T08:41:23.694Z,96709.50
2022-12-23T08:43:51.440Z,96720.97
2022-12-23T08:46:18.355Z,96718.16
2022-12-23T08:48:49.480Z,96735.44
2022-12-23T08:51:18.764Z,96737.72
2022-12-23T08:53:46.821Z,96740.53
2022-12-23T08:56:17.141Z,96748.94
2022-12-23T08:58:46.894Z,96753.47
2022-12-23T09:01:15.735Z,96742.47
2022-12-23T09:03:43.236Z,96744.22
2022-12-23T09:06:26.531Z,96750.03
2022-12-23T09:08:56.510Z,96743.91
2022-12-23T09:11:25.656Z,96742.84
2022-12-23T09:13:52.915Z,96751.19
2022-12-23T09:16:20.403Z,96748.81
2022-12-23T09:18:47.244Z,96762.31
2022-12-23T09:21:18.173Z,96755.41
2022-12-23T09:23:45.437Z,96758.75
2022-12-23T09:26:27.860Z,96751.84
2022-12-23T09:28:56.026Z,96749.06
2022-12-23T09:31:29.055Z,96749.72
2022-12-23T09:33:59.584Z,96752.19
2022-12-23T09:36:27.501Z,96751.91
2022-12-23T09:38:56.364Z,96750.06
2022-12-23T09:42:01.773Z,96743.94
2022-12-23T09:44:49.539Z,96741.88
2022-12-23T09:47:21.346Z,96748.72
2022-12-23T09:49:58.265Z,96740.50
2022-12-23T09:52:33.624Z,96733.59
2022-12-23T09:55:00.986Z,96729.50
2022-12-23T09:58:01.203Z,96719.31
2022-12-23T10:00:39.766Z,96726.69
2022-12-23T10:03:19.301Z,96726.38
2022-12-23T10:06:11.172Z,96729.72
2022-12-23T10:08:42.261Z,96739.13
2022-12-23T10:11:25.981Z,96729.72
2022-12-23T10:14:24.638Z,96725.16
2022-12-23T10:17:15.933Z,96726.13
2022-12-23T10:19:46.289Z,96721.53
2022-12-23T10:22:20.585Z,96728.34
2022-12-23T10:24:49.417Z,96726.94
2022-12-23T10:27:29.854Z,96734.94
2022-12-23T10:30:13.923Z,96727.19
2022-12-23T10:33:18.367Z,96722.66
2022-12-23T10:36:10.157Z,96716.59
2022-12-23T10:38:48.112Z,96720.84
2022-12-23T10:41:31.694Z,96724.06
2022-12-23T10:44:37.935Z,96711.75
2022-12-23T10:47:28.170Z,96715.31
2022-12-23T10:50:19.959Z,96721.16
2022-12-23T10:52:49.171Z,96720.94
2022-12-23T10:55:27.305Z,96713.03
2022-12-23T10:58:14.715Z,96707.75
2022-12-23T11:00:47.904Z,96711.53
2022-12-23T11:03:30.007Z,96711.75
2022-12-23T11:05:58.865Z,96705.94
2022-12-23T11:08:31.614Z,96716.59
2022-12-23T11:11:01.727Z,96716.09
2022-12-23T11:13:33.857Z,96723.00
2022-12-23T11:16:19.691Z,96714.03
2022-12-23T11:18:58.114Z,96702.56
2022-12-23T11:21:25.867Z,96702.88
2022-12-23T11:24:09.556Z,96707.22
2022-12-23T11:26:36.988Z,96699.97
2022-12-23T11:29:12.638Z,96712.94
2022-12-23T11:31:45.083Z,96718.13
2022-12-23T11:34:18.972Z,96726.56
2022-12-23T11:37:03.363Z,96714.56
2022-12-23T11:39:36.962Z,96707.41
2022-12-23T11:42:18.012Z,96702.34
2022-12-23T11:44:49.016Z,96704.72
2022-12-23T11:47:22.699Z,96710.13
2022-12-23T11:49:58.526Z,96702.97
2022-12-23T11:52:32.828Z,96692.84
2022-12-23T11:55:02.040Z,96694.88
2022-12-23T11:57:46.419Z,96690.03
2022-12-23T12:00:28.351Z,96674.78
2022-12-23T12:02:59.002Z,96681.16
2022-12-23T12:05:30.141Z,96674.25
2022-12-23T12:08:04.018Z,96672.22
2022-12-23T12:10:35.379Z,96667.13
2022-12-23T12:13:05.805Z,96669.16
2022-12-23T12:15:41.064Z,96667.13
2022-12-23T12:18:13.492Z,96655.22
2022-12-23T12:20:53.685Z,96664.09
2022-12-23T12:23:40.942Z,96659.78
2022-12-23T12:26:17.270Z,96662.25
2022-12-23T12:28:48.396Z,96649.41
2022-12-23T12:31:28.005Z,96655.66
2022-12-23T12:34:03.911Z,96650.28
2022-12-23T12:36:43.946Z,96645.94
2022-12-23T12:39:21.127Z,96636.88
2022-12-23T12:42:05.031Z,96636.88
2022-12-23T12:45:01.000Z,96632.00
2022-12-23T12:48:13.033Z,96622.63
2022-12-23T12:50:58.547Z,96622.19
2022-12-23T12:53:30.278Z,96622.63
2022-12-23T12:56:06.109Z,96610.41
2022-12-23T12:58:34.922Z,96616.25
2022-12-23T13:01:36.974Z,96603.81
2022-12-23T13:04:30.925Z,96611.19
2022-12-23T13:07:20.644Z,96599.72
2022-12-23T13:10:02.096Z,96607.91
2022-12-23T13:12:36.209Z,96598.19
2022-12-23T13:15:15.202Z,96596.25
2022-12-23T13:18:08.042Z,96592.16
2022-12-23T13:20:57.429Z,96591.81
2022-12-23T13:23:44.864Z,96588.81
2022-12-23T13:26:32.700Z,96574.56
2022-12-23T13:29:31.018Z,96569.69
2022-12-23T13:32:17.159Z,96562.25
2022-12-23T13:35:12.563Z,96561.69
2022-12-23T13:38:05.358Z,96553.50
2022-12-23T13:41:03.277Z,96552.50
2022-12-23T13:43:42.841Z,96544.84
2022-12-23T13:46:23.082Z,96536.75
2022-12-23T13:49:17.496Z,96542.28
2022-12-23T13:51:53.413Z,96539.47
2022-12-23T13:54:33.850Z,96531.03
2022-12-23T13:57:20.643Z,96543.22
2022-12-23T14:00:06.304Z,96538.59
2022-12-23T14:03:17.251Z,96536.31
2022-12-23T14:05:54.337Z,96550.25
2022-12-23T14:08:27.449Z,96550.78
2022-12-23T14:11:12.396Z,96551.97
2022-12-23T14:13:52.925Z,96551.00
2022-12-23T14:17:07.784Z,96547.88
2022-12-23T14:19:52.429Z,96536.97
2022-12-23T14:22:58.976Z,96527.03
2022-12-23T14:25:33.814Z,96524.88
2022-12-23T14:28:19.671Z,96534.28
2022-12-23T14:30:47.093Z,96525.63
2022-12-23T14:33:18.585Z,96521.00
2022-12-23T14:35:46.314Z,96517.63
2022-12-23T14:38:15.783Z,96507.91
2022-12-23T14:40:42.524Z,96510.72
2022-12-23T14:43:33.008Z,96498.94
2022-12-23T14:46:05.316Z,96499.47
2022-12-23T14:48:44.559Z,96504.34
2022-12-23T14:51:14.178Z,96499.28
2022-12-23T14:53:53.910Z,96504.66
2022-12-23T14:56:27.362Z,96498.09
2022-12-23T14:59:12.558Z,96488.69
2022-12-23T15:01:54.261Z,96487.50
2022-12-23T15:04:23.868Z,96490.66
2022-12-23T15:06:58.935Z,96480.53
2022-12-23T15:09:40.209Z,96471.88
2022-12-23T15:12:18.780Z,96467.34
2022-12-23T15:14:52.132Z,96470.91
2022-12-23T15:17:31.120Z,96467.13
2022-12-23T15:20:14.101Z,96464.13
2022-12-23T15:22:43.778Z,96461.31
2022-12-23T15:25:27.643Z,96455.91
2022-12-23T15:28:01.483Z,96457.41
2022-12-23T15:30:34.071Z,96460.97
2022-12-23T15:33:11.944Z,96457.94
2022-12-23T15:35:52.467Z,96471.03
2022-12-23T15:38:21.314Z,96466.50
2022-12-23T15:41:18.839Z,96463.69
2022-12-23T15:43:45.789Z,96468.03
2022-12-23T15:46:28.679Z,96476.63
2022-12-23T15:48:56.779Z,96464.13
2022-12-23T15:54:31.441Z,96458.41
2022-12-23T15:57:00.423Z,96446.41
2022-12-23T15:59:31.912Z,96436.66
2022-12-23T16:01:59.027Z,96426.97
2022-12-23T16:04:29.483Z,96418.00
2022-12-23T16:06:56.588Z,96400.16
2022-12-23T16:09:32.233Z,96390.47
2022-12-23T16:12:22.971Z,96394.78
2022-12-23T16:14:55.972Z,96383.56
2022-12-23T16:17:34.766Z,96374.19
2022-12-23T16:20:42.010Z,96371.91
2022-12-23T16:23:11.053Z,96377.09
2022-12-23T16:25:38.726Z,96372.59
2022-12-23T16:28:21.777Z,96358.75
2022-12-23T16:30:52.392Z,96344.53
2022-12-23T16:33:37.319Z,96339.97
2022-12-23T16:36:25.274Z,96344.53
2022-12-23T16:39:19.049Z,96345.25
2022-12-23T16:41:45.871Z,96362.31
2022-12-23T16:44:12.652Z,96367.94
2022-12-23T16:46:43.978Z,96373.53
2022-12-23T16:49:16.362Z,96365.88
2022-12-23T16:51:43.255Z,96370.94
2022-12-23T16:54:14.805Z,96352.03
2022-12-23T16:56:41.656Z,96342.84
2022-12-23T16:59:09.952Z,96354.09
2022-12-23T17:01:39.623Z,96346.00
2022-12-23T17:04:07.415Z,96341.91
2022-12-23T17:06:36.064Z,96329.38
2022-12-23T17:09:04.340Z,96330.91
2022-12-23T17:11:40.207Z,96323.22
2022-12-23T17:14:15.545Z,96322.47
2022-12-23T17:16:43.335Z,96336.72
2022-12-23T17:19:10.138Z,96341.03
2022-12-23T17:21:39.158Z,96334.13
2022-12-23T17:24:26.249Z,96341.44
2022-12-23T17:26:54.403Z,96345.53
2022-12-23T17:29:21.209Z,96349.13
2022-12-23T17:31:48.779Z,96359.25
2022-12-23T17:34:21.561Z,96336.06
2022-12-23T17:36:50.578Z,96332.28
2022-12-23T17:39:18.826Z,96337.13
2022-12-23T17:41:46.008Z,96330.75
2022-12-23T17:44:17.487Z,96331.09
2022-12-23T17:46:45.850Z,96336.72
2022-12-23T17:49:12.765Z,96340.41
2022-12-23T17:51:40.531Z,96319.56
2022-12-23T17:54:10.224Z,96311.50
2022-12-23T17:56:37.003Z,96307.31
2022-12-23T17:59:04.104Z,96300.97
2022-12-23T18:01:32.250Z,96298.34
2022-12-23T18:03:59.991Z,96292.97
2022-12-23T18:06:28.940Z,96289.41
2022-12-23T18:08:58.923Z,96288.63
2022-12-23T18:11:39.062Z,96290.91
2022-12-23T18:14:13.141Z,96293.16
2022-12-23T18:16:40.186Z,96293.38
2022-12-23T18:19:16.617Z,96292.06
2022-12-23T18:21:43.485Z,96297.88
2022-12-23T18:24:10.900Z,96285.59
2022-12-23T18:26:38.084Z,96291.19
2022-12-23T18:29:05.235Z,96298.28
2022-12-23T18:31:32.772Z,96288.03
2022-12-23T18:34:00.350Z,96292.91
2022-12-23T18:36:35.855Z,96298.72
2022-12-23T18:39:02.657Z,96298.72
2022-12-23T18:41:29.396Z,96319.69
2022-12-23T18:43:56.826Z,96297.00
2022-12-23T18:46:23.720Z,96304.47
2022-12-23T18:48:51.719Z,96303.72
2022-12-23T18:51:20.950Z,96304.47
2022-12-23T18:53:48.675Z,96301.66
2022-12-23T18:56:17.599Z,96296.81
2022-12-23T18:58:44.323Z,96289.69
2022-12-23T19:01:15.524Z,96295.06
2022-12-23T19:03:43.163Z,96305.53
2022-12-23T19:06:13.561Z,96312.47
2022-12-23T19:08:41.495Z,96306.31
2022-12-23T19:11:13.947Z,96306.53
2022-12-23T19:13:41.305Z,96313.09
2022-12-23T19:16:11.586Z,96306.94
2022-12-23T19:18:38.886Z,96304.53
2022-12-23T19:21:05.977Z,96321.03
2022-12-23T19:23:33.231Z,96318.22
2022-12-23T19:26:00.036Z,96310.56
2022-12-23T19:28:27.219Z,96313.91
2022-12-23T19:30:54.031Z,96306.25
2022-12-23T19:33:20.804Z,96312.44
2022-12-23T19:35:47.559Z,96319.88
2022-12-23T19:38:14.329Z,96323.97
2022-12-23T19:40:41.237Z,96319.88
2022-12-23T19:43:08.239Z,96314.78
2022-12-23T19:45:35.000Z,96330.75
2022-12-23T19:48:01.789Z,96325.91
2022-12-23T19:50:30.380Z,96322.25
2022-12-23T19:52:57.557Z,96343.16
2022-12-23T19:55:24.308Z,96350.28
2022-12-23T19:57:52.342Z,96352.56
2022-12-23T20:00:19.277Z,96364.72
2022-12-23T20:02:46.287Z,96357.06
2022-12-23T20:05:13.164Z,96372.06
2022-12-23T20:07:39.984Z,96380.69
2022-12-23T20:10:07.542Z,96382.22
2022-12-23T20:12:34.354Z,96376.59
2022-12-23T20:15:01.181Z,96382.41
2022-12-23T20:17:27.928Z,96368.38
2022-12-23T20:19:54.669Z,96375.84
2022-12-23T20:22:21.667Z,96378.31
2022-12-23T20:24:48.674Z,96372.91
2022-12-23T20:27:16.250Z,96381.53
2022-12-23T20:29:43.719Z,96385.31
2022-12-23T20:32:10.734Z,96379.91
2022-12-23T20:34:40.010Z,96387.97
2022-12-23T20:37:07.669Z,96383.88
2022-12-23T20:39:35.262Z,96389.91
2022-12-23T20:42:02.130Z,96387.50
2022-12-23T20:44:37.502Z,96387.38
2022-12-23T20:47:07.905Z,96399.03
2022-12-23T20:49:34.685Z,96394.78
2022-12-23T20:52:01.897Z,96387.50
2022-12-23T20:54:33.281Z,96372.91
2022-12-23T20:57:02.437Z,96378.19
2022-12-23T20:59:29.545Z,96384.81
2022-12-23T21:01:58.940Z,96375.09
2022-12-23T21:04:25.897Z,96378.63
2022-12-23T21:06:52.732Z,96377.91
2022-12-23T21:09:19.479Z,96389.31
2022-12-23T21:11:47.406Z,96393.66
2022-12-23T21:14:15.287Z,96398.91
2022-12-23T21:16:43.130Z,96401.19
2022-12-23T21:19:17.230Z,96419.75
2022-12-23T21:21:44.543Z,96414.34
2022-12-23T21:24:11.793Z,96416.06
2022-12-23T21:26:38.888Z,96416.25
2022-12-23T21:29:07.255Z,96434.63
2022-12-23T21:31:36.699Z,96446.63
2022-12-23T21:34:03.795Z,96446.63
2022-12-23T21:36:33.909Z,96455.81
2022-12-23T21:39:01.180Z,96460.16
2022-12-23T21:41:31.036Z,96467.25
2022-12-23T21:43:59.477Z,96461.63
2022-12-23T21:46:27.650Z,96477.22
2022-12-23T21:48:56.464Z,96491.25
2022-12-23T21:51:26.530Z,96492.78
2022-12-23T21:53:55.521Z,96504.03
2022-12-23T21:56:28.086Z,96506.84
2022-12-23T21:58:56.626Z,96499.91
2022-12-23T22:01:23.574Z,96500.47
2022-12-23T22:03:51.317Z,96495.59
2022-12-23T22:06:24.937Z,96508.34
2022-12-23T22:08:52.709Z,96504.03
2022-12-23T22:11:25.678Z,96501.75
2022-12-23T22:13:52.790Z,96512.25
2022-12-23T22:16:22.734Z,96509.78
2022-12-23T22:18:50.649Z,96522.34
2022-12-23T22:21:20.373Z,96522.34
2022-12-23T22:23:47.846Z,96527.97
2022-12-23T22:26:24.780Z,96521.16
2022-12-23T22:28:53.949Z,96511.75
2022-12-23T22:31:44.324Z,96518.13
2022-12-23T22:34:14.995Z,96524.88
2022-12-23T22:36:42.030Z,96521.84
2022-12-23T22:39:19.470Z,96523.34
2022-12-23T22:41:47.427Z,96519.03
2022-12-23T22:44:15.197Z,96537.19
2022-12-23T22:46:42.607Z,96532.66
2022-12-23T22:49:13.942Z,96536.00
2022-12-23T22:51:41.781Z,96549.88
2022-12-23T22:54:09.189Z,96543.47
2022-12-23T22:56:36.466Z,96538.38
2022-12-23T22:59:04.958Z,96548.84
2022-12-23T23:01:34.519Z,96545.84
2022-12-23T23:04:03.198Z,96550.16
2022-12-23T23:06:35.130Z,96554.28
2022-12-23T23:09:02.209Z,96558.38
2022-12-23T23:11:29.615Z,96565.09
2022-12-23T23:13:57.285Z,96574.81
2022-12-23T23:16:25.223Z,96565.09
2022-12-23T23:18:53.016Z,96572.97
2022-12-23T23:21:20.531Z,96572.22
2022-12-23T23:23:47.914Z,96583.47
2022-12-23T23:26:15.254Z,96589.09
2022-12-23T23:28:42.339Z,96600.34
2022-12-23T23:31:40.626Z,96583.25
2022-12-23T23:33:58.061Z,96595.59
2022-12-23T23:36:25.179Z,96600.22
2022-12-23T23:38:52.105Z,96603.59
2022-12-23T23:41:23.221Z,96603.34
2022-12-23T23:43:51.593Z,96608.78
2022-12-23T23:46:18.551Z,96609.50
2022-12-23T23:48:45.492Z,96612.13
2022-12-23T23:51:12.936Z,96622.81
2022-12-23T23:53:40.683Z,96630.50
2022-12-23T23:56:08.822Z,96629.75
2022-12-23T23:58:36.732Z,96639.47
